CRC

Crooked River Challenge - Loft Fly

Station: Inventory - T Race

Distance: 0.1 Miles    

Release: 15-Apr-2019 08:45

Weather Release:    Arrival:

Wind at Release:     Wind at Arrival:

Temp at Release: °    Temp at Arrival: °

Lofts: 149

Birds: 496

Clocked: 495

Good Luck to Everyone!
Drops Pos Breeder Pigeon Name Color Sex Ent Arrival Speed To Win Eligible OpBOpC
1 Irishsyndicatelofts - AZ 0414-IF19-IRIS BC C 1 09:51:57.45 2.629 00:00:00 Yes
2 Roger Teeters - WA 4611-AU19-LKC BB C 1 09:52:05.82 2.623 00:00:09 Yes
3 Yendez Loft - TX 0305-AU19-YEND BBWF H 1 09:52:17.70 2.615 00:00:22 Yes
4 Adam Hajduga - IL 0992-AU19-HAJD BBWF H 1 09:52:24.54 2.611 00:00:28 Yes
5 A F L - GA 0048-IF19-AFL BB H 1 09:53:06.13 2.584 00:01:10 Yes
6 Sierra Ranch - CA 0922-AU19-SIER BB C 1 09:53:11.74 2.581 00:01:15 Yes
7 A P C Loft - TX 19152-AU19-APC BBSP C 1 09:53:24.70 2.573 00:01:27 Yes
8 Ganus Family Loft - IN 0867-AU19-GFL BBWF H 1 09:53:37.84 2.564 00:01:42 Yes
9 Smith R.P.L. - UT 4515-AU19-SMIT BB C 1 09:54:20.69 2.538 00:02:24 Yes
10 A F L - GA 0036-IF19-AFL BB C 2 09:54:41.34 2.526 00:02:44 Yes
11 P N W Challenge - ID 0511-AU19-IDA BB H 1 09:54:48.37 2.521 00:02:52 Yes
12 Dehesa Valley Classic - CA 19019-AU19-PUEB BC C 1 09:55:05.87 2.511 00:03:09 Yes
13 Sunshine Loft 2 - SC 0134-AU19-PAK B U L L E T -2 BB H 1 09:55:16.57 2.504 00:03:21 Yes
14 K T Loft - IN 0405-AU19-KT BB H 1 09:55:45.68 2.487 00:03:49 Yes
15 A-Lo Loft/Nemelka - UT 9020-AU19-NRPL ☯️ Florian x 0142 BB H 1 09:56:11.05 2.472 00:04:15 Yes
16 S & J Platt - OR 18203-AU19-PLAT BLK C 1 09:56:17.90 2.469 00:04:20 Yes
17 Kolvenbag & Son - PA 1329-IF19-KOLV BC C 1 09:56:20.70 2.467 00:04:24 Yes
18 Van Den Bossche Brothers - ME 9228-IF19-CMP Mighty Moose BB C 1 09:56:22.67 2.466 00:04:26 Yes
19 Andy Skwiat - IN 0053-AU19-ANDY BBSP H 1 09:56:41.33 2.455 00:04:45 Yes
20 Smith R.P.L. - UT 4520-AU19-SMIT BB H 2 09:56:42.45 2.454 00:04:46 Yes
21 Transilvania Loft - NV 0110-AU19-CIMP DC C 1 09:56:48.09 2.451 00:04:52 Yes
22 Balikbayan Express - WA 0003-AU19-CEYX BC H 1 09:56:55.74 2.447 00:04:59 Yes
23 Zheng Family Loft - NY 0989-AU19-ZFL ZFL 989 DC H 1 09:57:03.52 2.442 00:05:08 Yes
24 Red Ass Ranch - TX 0417-AU19-RAR BB H 1 09:57:20.99 2.433 00:05:24 Yes
25 Peters - GA 0020-AU19-PETE PETERS -4 BB H 1 09:58:22.04 2.399 00:06:25 Yes
26 Adam Hajduga - IL 0997-AU19-HAJD BB H 2 09:58:32.58 2.393 00:06:36 Yes
27 Great Wall - VA 0834-AU19-JIMM BC H 1 09:58:48.45 2.385 00:06:51 Yes
27 Yendez Loft - TX 0314-AU19-YEND BBWF C 2 09:58:48.53 2.385 00:06:51 Yes
29 Genesis Syndicate Loft - AZ 0709-AU19-GEN BB H 1 09:58:49.55 2.384 00:06:53 Yes
30 Yendez Loft - TX 0311-AU19-YEND PENC C 3 09:59:11.74 2.372 00:07:15 Yes
31 Gmpineda 9 Loft - CA 0003-AU19-GMLT 7194 X 958 BBWF H 1 09:59:40.26 2.357 00:07:44 Yes
32 Torres Family Loft - TX 0021-AU19-GTNS GTNS-ANGELLA BB H 1 10:00:23.47 2.334 00:08:28 Yes
32 Omelio Perez - NM 54009-AU19-ARPU BB H 1 10:00:24.76 2.334 00:08:28 Yes
34 Me Fui ! Vega Loft - FL 0069-AU19-VEGA BB C 1 10:00:40.04 2.326 00:08:43 Yes
35 Dayrit Lofts - CA 4443-AU19-JEDD "aphrodite" BC H 1 10:01:06.92 2.312 00:09:11 Yes
36 Great Wall - VA 0805-AU19-JIMM BB C 2 10:01:43.32 2.294 00:09:47 Yes
36 Bieche-Stevenson - CA 9051-AU19-BIEC BB H 1 10:01:43.50 2.294 00:09:47 Yes
38 Baldwin & Tilson - NC 9002-AU19-TENT BB H 1 10:01:59.35 2.286 00:10:03 Yes
39 A-Lo Loft/Nemelka - UT 2883-AU19-FOYS ☯️Gangstaoflovex7010 DC H 2 10:02:12.36 2.280 00:10:15 Yes
40 Irishsyndicatelofts - AZ 0463-IF19-IRIS BBWF H 2 10:02:15.99 2.278 00:10:19 Yes
41 Andy Skwiat - IN 0006-AU19-ANDY BC H 2 10:02:45.39 2.263 00:10:50 Yes
41 Sierra Ranch - CA 0910-AU19-SIER BB H 2 10:02:45.93 2.263 00:10:50 Yes
43 Jimmy Zheng Loft - MS 0857-AU19-JZTL BB C 1 10:02:57.03 2.258 00:11:00 Yes
44 Carini / Codd - OR 0030-AU19-CODD BBT H 1 10:03:01.56 2.256 00:11:04 Yes
45 Ken Family Loft - FL 0017-AU19-XKL BB C 1 10:03:05.73 2.254 00:11:08 Yes
46 ** J-Ireneo Loft ** - CA 0409-AU19-JIR BC C 1 10:03:09.49 2.252 00:11:12 Yes
47 Transilvania Loft - NV 0115-AU19-CIMP BCT H 2 10:03:34.47 2.240 00:11:38 Yes
48 Wolf Den & Family Loft - IL 0011-AU19-FAM BB H 1 10:03:42.87 2.236 00:11:46 Yes
49 D B J Loft - FL 1736-AU19-DBJ BCSP H 1 10:03:47.94 2.234 00:11:50 Yes
50 D B J Loft - FL 15390-AU19-GHC BB C 2 10:03:55.83 2.230 00:11:59 Yes
51 Slick Hills Loft - UT 39405-AU19-ARPU GZ C 1 10:04:02.13 2.227 00:12:05 Yes
52 Emerson & Donnelly - SC 0208-AU19-MERL BBWF C 1 10:04:12.85 2.222 00:12:16 Yes
53 Red Ass Ranch - TX 0411-AU19-RAR BB H 2 10:04:29.15 2.214 00:12:33 Yes
54 Y Mtn Loft - TN 26707-AU19-YMTN BC H 1 10:04:37.27 2.210 00:12:42 Yes
55 A-Lo Loft/Nemelka - UT 2888-AU19-FOYS ☯️Gangstaoflovex7010 BB H 3 10:04:50.37 2.204 00:12:55 Yes
56 Cherokee Loft - MI 0538-AU19-CHER BC H 1 10:05:24.62 2.189 00:13:27 Yes
57 - Blue Giligit Loft - - CA 3753-AU19-JEDD E N E R G Y B L U E BBWF C 1 10:05:27.11 2.188 00:13:30 Yes
58 ** J-Ireneo Loft ** - CA 0414-AU19-JIR BCWF C 2 10:05:38.15 2.183 00:13:41 Yes
59 S & J Platt - OR 18225-AU19-PLAT BC C 2 10:05:43.18 2.180 00:13:47 Yes
60 Steven Loft - TX 0015-AU19-YE BBWF C 1 10:05:45.70 2.179 00:13:50 Yes
61 A-Lo-Loft - NY 2879-AU19-FOYS ☯️3997xNRPL8041☯️ BB H 1 10:06:08.79 2.169 00:14:12 Yes
62 Eastern Pearl Loft - VA 0546-AU19-EPL 🈚️量 546 BB H 1 10:06:43.47 2.154 00:14:46 Yes
63 Lising Syndicate - CA 28007-AU19-ARPU RD H 1 10:06:54.59 2.149 00:14:57 Yes
64 98 M J - PA 0004-AU19-AJ BCWF H 1 10:07:18.37 2.138 00:15:22 Yes
64 D B J Loft - FL 1733-AU19-DBJ BBWF H 3 10:07:19.68 2.138 00:15:22 Yes
66 Steven Loft - TX 0012-AU19-YE BBWF H 2 10:07:24.89 2.136 00:15:27 Yes
67 Plymouth Peak Pro Challenge - UT 9572-AU19-HL BB C 1 10:07:36.27 2.131 00:15:39 Yes
68 John Partridge - CA 1502-AU19-PASO BB H 1 10:07:53.29 2.123 00:15:57 Yes
69 Irishsyndicatelofts - AZ 0418-IF19-IRIS BB C 3 10:08:01.01 2.120 00:16:04 Yes
70 Genesis Syndicate Loft - AZ 0719-AU19-GEN BB H 2 10:08:09.81 2.116 00:16:14 Yes
71 A P C Loft - TX 19020-AU19-APC BBSP C 2 10:08:18.42 2.113 00:16:21 Yes
72 Peters - GA 0008-AU19-PETE PETERS -2 BBSP C 2 10:08:26.78 2.109 00:16:30 Yes
73 S & J Platt - OR 18210-AU19-PLAT BB C 3 10:08:29.75 2.108 00:16:33 Yes
74 Lamonta - OR 58503-AU19-ARPU BBWF C 1 10:08:35.70 2.105 00:16:40 Yes
75 Marengo Creek Farms - AL 3292-AU19-MCF BB H 1 10:09:01.13 2.095 00:17:04 Yes
76 Emerson & Donnelly - SC 0200-AU19-MERL BB H 2 10:09:08.31 2.092 00:17:11 Yes
77 Sam Haslem - UT 0006-AU19-SAM BB H 1 10:09:36.97 2.080 00:17:40 Yes
78 Rueter Family Loft - OR 5329-AU19-CORP BB H 1 10:10:02.23 2.070 00:18:05 Yes
79 American Lofts - OR 4614-AU19-CORP BBWF C 1 10:10:39.51 2.055 00:18:42 Yes
80 Byers/Perrin - OR 4401-AU19-CORP BC H 1 10:10:41.36 2.054 00:18:44 Yes
81 Y Mtn Loft - TN 26703-AU19-YMTN BC H 2 10:10:52.76 2.049 00:18:57 Yes
82 Wolf Den & Family Loft - IL 0090-AU19-WOLF BB C 2 10:11:51.58 2.026 00:19:56 Yes
83 Filipino-American Pigeon Fanciers Alliance - IL 0145-AU19-FAMP BB H 1 10:11:58.32 2.024 00:20:01 Yes
84 A F L - GA 0069-IF19-AFL BB H 3 10:12:10.22 2.019 00:20:14 Yes
85 Adam Hajduga - IL 0982-AU19-HAJD BB C 3 10:12:27.56 2.012 00:20:32 Yes
86 Jimmy Zheng Loft - MS 0835-AU19-JZLT BB H 2 10:12:49.91 2.004 00:20:53 Yes
86 Kessler Family Loft - OR 0005-AU19-NRK BBWF C 1 10:12:50.28 2.004 00:20:53 Yes
88 Powerstroke Loft - UT 0501-AU19-PS BB H 1 10:13:10.29 1.996 00:21:14 Yes
89 Bieche-Stevenson - CA 9002-AU19-BIEC BB C 2 10:13:53.56 1.980 00:21:57 Yes
90 Marocik Loft - NY 1306-IF19-PERT BB H 1 10:14:13.02 1.973 00:22:16 Yes
91 Me Fui ! Vega Loft - FL 0062-AU19-VEGA CHOC H 2 10:14:16.31 1.972 00:22:18 Yes
92 Ganus Family Loft - IN 0701-AU19-GFL BB C 2 10:14:27.27 1.967 00:22:32 Yes
92 Da-Dong - WI 1624-AU19-RAC BB H 1 10:14:28.79 1.967 00:22:32 Yes
94 Carini / Codd - OR 0915-AU19-CARI BCWF H 2 10:14:31.72 1.966 00:22:35 Yes
95 Mystro - MN 13392-AU19-FOYS BCWF H 1 10:14:46.99 1.960 00:22:51 Yes
96 G & L Loft - OR 0506-AU19-WPC BC H 1 10:15:07.88 1.953 00:23:10 Yes
97 Q H - FL 19283-IF19-ZHEN BB H 1 10:15:11.57 1.951 00:23:16 Yes
98 Tian Loft - FL 15663-AU19-ARPU BB H 1 10:15:32.86 1.944 00:23:35 Yes
99 Yendez Loft - TX 0301-AU19-YEND BB H 4 10:15:36.72 1.942 00:23:41 Yes
100 Charlie Barbiere - NJ 3330-IF19-BSC MY PRAYER GRIZ H 1 10:15:49.86 1.938 00:23:52 Yes

There are 753 bird records

Note: These Race Results are unofficial and subject to change until verified by the Race Committee and declared final.